sensor_id;sensor_type;location;lat;lon;timestamp;P1;durP1;ratioP1;P2;durP2;ratioP2
6195;SDS011;3131;42.630;23.382;2022-07-10T00:01:52;13.97;;;12.17;;
6195;SDS011;3131;42.630;23.382;2022-07-10T00:04:19;13.97;;;12.00;;
6195;SDS011;3131;42.630;23.382;2022-07-10T00:06:47;18.30;;;11.40;;
6195;SDS011;3131;42.630;23.382;2022-07-10T00:09:14;14.43;;;12.17;;
6195;SDS011;3131;42.630;23.382;2022-07-10T00:11:42;18.07;;;11.50;;
6195;SDS011;3131;42.630;23.382;2022-07-10T00:14:10;13.67;;;11.03;;
6195;SDS011;3131;42.630;23.382;2022-07-10T00:16:37;14.60;;;11.97;;
6195;SDS011;3131;42.630;23.382;2022-07-10T00:19:05;16.00;;;12.73;;
6195;SDS011;3131;42.630;23.382;2022-07-10T00:21:32;16.10;;;11.73;;
6195;SDS011;3131;42.630;23.382;2022-07-10T00:24:00;17.63;;;12.90;;
6195;SDS011;3131;42.630;23.382;2022-07-10T00:26:27;17.07;;;12.50;;
6195;SDS011;3131;42.630;23.382;2022-07-10T00:28:55;17.50;;;12.80;;
6195;SDS011;3131;42.630;23.382;2022-07-10T00:31:23;16.53;;;12.27;;
6195;SDS011;3131;42.630;23.382;2022-07-10T00:33:51;17.83;;;13.63;;
6195;SDS011;3131;42.630;23.382;2022-07-10T00:36:18;17.60;;;12.80;;
6195;SDS011;3131;42.630;23.382;2022-07-10T00:38:46;15.37;;;12.13;;
6195;SDS011;3131;42.630;23.382;2022-07-10T00:41:14;13.07;;;11.67;;
6195;SDS011;3131;42.630;23.382;2022-07-10T00:43:54;15.60;;;12.70;;
6195;SDS011;3131;42.630;23.382;2022-07-10T00:46:22;19.13;;;13.63;;
6195;SDS011;3131;42.630;23.382;2022-07-10T00:48:50;16.57;;;12.50;;
6195;SDS011;3131;42.630;23.382;2022-07-10T00:51:18;26.27;;;14.03;;
6195;SDS011;3131;42.630;23.382;2022-07-10T00:53:46;17.93;;;13.47;;
6195;SDS011;3131;42.630;23.382;2022-07-10T00:56:15;18.77;;;13.63;;
6195;SDS011;3131;42.630;23.382;2022-07-10T00:58:42;17.53;;;12.67;;
6195;SDS011;3131;42.630;23.382;2022-07-10T01:01:10;15.30;;;12.77;;
6195;SDS011;3131;42.630;23.382;2022-07-10T01:03:38;15.07;;;12.90;;
6195;SDS011;3131;42.630;23.382;2022-07-10T01:06:06;25.50;;;12.20;;
6195;SDS011;3131;42.630;23.382;2022-07-10T01:08:33;16.17;;;12.40;;
6195;SDS011;3131;42.630;23.382;2022-07-10T01:11:01;18.50;;;12.43;;
6195;SDS011;3131;42.630;23.382;2022-07-10T01:13:28;19.17;;;13.50;;
6195;SDS011;3131;42.630;23.382;2022-07-10T01:15:56;19.37;;;12.93;;
6195;SDS011;3131;42.630;23.382;2022-07-10T01:18:25;18.00;;;12.97;;
6195;SDS011;3131;42.630;23.382;2022-07-10T01:20:53;15.57;;;12.30;;
6195;SDS011;3131;42.630;23.382;2022-07-10T01:23:21;15.20;;;12.30;;
6195;SDS011;3131;42.630;23.382;2022-07-10T01:25:48;16.57;;;13.00;;
6195;SDS011;3131;42.630;23.382;2022-07-10T01:28:16;17.97;;;12.30;;
6195;SDS011;3131;42.630;23.382;2022-07-10T01:30:44;18.37;;;12.40;;
6195;SDS011;3131;42.630;23.382;2022-07-10T01:33:12;16.03;;;12.60;;
6195;SDS011;3131;42.630;23.382;2022-07-10T01:35:39;20.17;;;12.10;;
6195;SDS011;3131;42.630;23.382;2022-07-10T01:38:08;13.67;;;11.03;;
6195;SDS011;3131;42.630;23.382;2022-07-10T01:40:35;15.00;;;12.50;;
6195;SDS011;3131;42.630;23.382;2022-07-10T01:43:03;17.93;;;12.17;;
6195;SDS011;3131;42.630;23.382;2022-07-10T01:45:32;18.63;;;11.53;;
6195;SDS011;3131;42.630;23.382;2022-07-10T01:47:59;13.80;;;10.97;;
6195;SDS011;3131;42.630;23.382;2022-07-10T01:50:27;16.50;;;11.27;;
6195;SDS011;3131;42.630;23.382;2022-07-10T01:52:55;13.47;;;10.90;;
6195;SDS011;3131;42.630;23.382;2022-07-10T01:55:22;12.17;;;10.60;;
6195;SDS011;3131;42.630;23.382;2022-07-10T01:57:50;13.57;;;10.83;;
6195;SDS011;3131;42.630;23.382;2022-07-10T02:00:17;16.97;;;11.37;;
6195;SDS011;3131;42.630;23.382;2022-07-10T02:02:45;14.50;;;11.47;;
6195;SDS011;3131;42.630;23.382;2022-07-10T02:05:14;13.60;;;9.90;;
6195;SDS011;3131;42.630;23.382;2022-07-10T02:07:42;16.37;;;10.70;;
6195;SDS011;3131;42.630;23.382;2022-07-10T02:10:10;13.90;;;10.27;;
6195;SDS011;3131;42.630;23.382;2022-07-10T02:12:37;18.00;;;11.07;;
6195;SDS011;3131;42.630;23.382;2022-07-10T02:15:06;14.63;;;10.83;;
6195;SDS011;3131;42.630;23.382;2022-07-10T02:17:34;13.83;;;9.17;;
6195;SDS011;3131;42.630;23.382;2022-07-10T02:20:02;18.77;;;9.57;;
6195;SDS011;3131;42.630;23.382;2022-07-10T02:22:30;13.27;;;11.03;;
6195;SDS011;3131;42.630;23.382;2022-07-10T02:24:58;14.13;;;11.37;;
6195;SDS011;3131;42.630;23.382;2022-07-10T02:27:25;14.83;;;11.10;;
6195;SDS011;3131;42.630;23.382;2022-07-10T02:29:53;13.00;;;10.37;;
6195;SDS011;3131;42.630;23.382;2022-07-10T02:32:20;12.87;;;10.10;;
6195;SDS011;3131;42.630;23.382;2022-07-10T02:34:48;15.43;;;12.33;;
6195;SDS011;3131;42.630;23.382;2022-07-10T02:37:16;14.13;;;11.07;;
6195;SDS011;3131;42.630;23.382;2022-07-10T02:39:44;11.97;;;9.83;;
6195;SDS011;3131;42.630;23.382;2022-07-10T02:42:11;13.43;;;11.17;;
6195;SDS011;3131;42.630;23.382;2022-07-10T02:44:39;14.07;;;10.43;;
6195;SDS011;3131;42.630;23.382;2022-07-10T02:47:07;14.63;;;11.23;;
6195;SDS011;3131;42.630;23.382;2022-07-10T02:49:34;13.63;;;10.33;;
6195;SDS011;3131;42.630;23.382;2022-07-10T02:52:03;15.03;;;10.17;;
6195;SDS011;3131;42.630;23.382;2022-07-10T02:54:31;16.53;;;11.70;;
6195;SDS011;3131;42.630;23.382;2022-07-10T02:56:59;19.10;;;12.03;;
6195;SDS011;3131;42.630;23.382;2022-07-10T02:59:27;16.33;;;11.60;;
6195;SDS011;3131;42.630;23.382;2022-07-10T03:01:54;14.17;;;10.97;;
6195;SDS011;3131;42.630;23.382;2022-07-10T03:04:22;19.97;;;11.73;;
6195;SDS011;3131;42.630;23.382;2022-07-10T03:06:50;17.93;;;11.13;;
6195;SDS011;3131;42.630;23.382;2022-07-10T03:09:17;13.37;;;11.23;;
6195;SDS011;3131;42.630;23.382;2022-07-10T03:11:45;15.43;;;10.90;;
6195;SDS011;3131;42.630;23.382;2022-07-10T03:14:12;14.97;;;10.50;;
6195;SDS011;3131;42.630;23.382;2022-07-10T03:16:40;12.70;;;10.53;;
6195;SDS011;3131;42.630;23.382;2022-07-10T03:19:08;17.73;;;11.77;;
6195;SDS011;3131;42.630;23.382;2022-07-10T03:21:35;13.47;;;9.53;;
6195;SDS011;3131;42.630;23.382;2022-07-10T03:24:05;14.37;;;10.33;;
6195;SDS011;3131;42.630;23.382;2022-07-10T03:26:32;12.43;;;9.87;;
6195;SDS011;3131;42.630;23.382;2022-07-10T03:29:00;12.20;;;10.10;;
6195;SDS011;3131;42.630;23.382;2022-07-10T03:31:28;13.80;;;9.97;;
6195;SDS011;3131;42.630;23.382;2022-07-10T03:33:55;14.97;;;10.03;;
6195;SDS011;3131;42.630;23.382;2022-07-10T03:36:23;12.83;;;10.37;;
6195;SDS011;3131;42.630;23.382;2022-07-10T03:38:50;13.87;;;10.80;;
6195;SDS011;3131;42.630;23.382;2022-07-10T03:41:18;12.30;;;10.50;;
6195;SDS011;3131;42.630;23.382;2022-07-10T03:43:45;15.70;;;10.60;;
6195;SDS011;3131;42.630;23.382;2022-07-10T03:46:13;11.70;;;10.23;;
6195;SDS011;3131;42.630;23.382;2022-07-10T03:48:40;14.57;;;10.40;;
6195;SDS011;3131;42.630;23.382;2022-07-10T03:51:08;10.67;;;8.50;;
6195;SDS011;3131;42.630;23.382;2022-07-10T03:53:35;18.33;;;9.30;;
6195;SDS011;3131;42.630;23.382;2022-07-10T03:56:04;13.43;;;8.27;;
6195;SDS011;3131;42.630;23.382;2022-07-10T03:58:32;12.13;;;9.40;;
6195;SDS011;3131;42.630;23.382;2022-07-10T04:01:00;10.90;;;9.73;;
6195;SDS011;3131;42.630;23.382;2022-07-10T04:03:27;16.57;;;10.73;;
6195;SDS011;3131;42.630;23.382;2022-07-10T04:05:55;11.97;;;8.93;;
6195;SDS011;3131;42.630;23.382;2022-07-10T04:08:22;12.80;;;9.43;;
6195;SDS011;3131;42.630;23.382;2022-07-10T04:10:50;13.53;;;10.67;;
6195;SDS011;3131;42.630;23.382;2022-07-10T04:13:18;12.37;;;9.50;;
6195;SDS011;3131;42.630;23.382;2022-07-10T04:15:46;11.90;;;9.77;;
6195;SDS011;3131;42.630;23.382;2022-07-10T04:18:13;13.60;;;9.13;;
6195;SDS011;3131;42.630;23.382;2022-07-10T04:20:41;12.53;;;8.83;;
6195;SDS011;3131;42.630;23.382;2022-07-10T04:23:09;13.00;;;9.00;;
6195;SDS011;3131;42.630;23.382;2022-07-10T04:25:36;13.67;;;9.20;;
6195;SDS011;3131;42.630;23.382;2022-07-10T04:28:04;10.73;;;8.93;;
6195;SDS011;3131;42.630;23.382;2022-07-10T04:30:32;12.00;;;9.23;;
6195;SDS011;3131;42.630;23.382;2022-07-10T04:33:00;13.33;;;9.27;;
6195;SDS011;3131;42.630;23.382;2022-07-10T04:35:27;12.47;;;8.53;;
6195;SDS011;3131;42.630;23.382;2022-07-10T04:37:55;11.23;;;8.00;;
6195;SDS011;3131;42.630;23.382;2022-07-10T04:40:23;11.40;;;9.33;;
6195;SDS011;3131;42.630;23.382;2022-07-10T04:42:51;11.70;;;6.43;;
6195;SDS011;3131;42.630;23.382;2022-07-10T04:45:19;11.17;;;7.57;;
6195;SDS011;3131;42.630;23.382;2022-07-10T04:47:46;14.27;;;9.37;;
6195;SDS011;3131;42.630;23.382;2022-07-10T04:50:14;11.03;;;8.43;;
6195;SDS011;3131;42.630;23.382;2022-07-10T04:52:41;7.97;;;5.73;;
6195;SDS011;3131;42.630;23.382;2022-07-10T04:55:09;12.93;;;6.07;;
6195;SDS011;3131;42.630;23.382;2022-07-10T04:57:37;13.37;;;8.43;;
6195;SDS011;3131;42.630;23.382;2022-07-10T05:00:08;13.37;;;7.80;;
6195;SDS011;3131;42.630;23.382;2022-07-10T05:02:36;11.57;;;8.30;;
6195;SDS011;3131;42.630;23.382;2022-07-10T05:05:05;12.53;;;7.30;;
6195;SDS011;3131;42.630;23.382;2022-07-10T05:07:32;8.90;;;7.73;;
6195;SDS011;3131;42.630;23.382;2022-07-10T05:10:00;9.73;;;7.57;;
6195;SDS011;3131;42.630;23.382;2022-07-10T05:12:29;7.60;;;6.27;;
6195;SDS011;3131;42.630;23.382;2022-07-10T05:14:57;6.80;;;5.27;;
6195;SDS011;3131;42.630;23.382;2022-07-10T05:17:26;11.67;;;6.87;;
6195;SDS011;3131;42.630;23.382;2022-07-10T05:19:54;8.47;;;6.60;;
6195;SDS011;3131;42.630;23.382;2022-07-10T05:22:23;10.43;;;7.27;;
6195;SDS011;3131;42.630;23.382;2022-07-10T05:24:51;8.47;;;7.07;;
6195;SDS011;3131;42.630;23.382;2022-07-10T05:27:19;8.57;;;5.90;;
6195;SDS011;3131;42.630;23.382;2022-07-10T05:29:46;8.43;;;5.80;;
6195;SDS011;3131;42.630;23.382;2022-07-10T05:32:14;7.13;;;5.60;;
6195;SDS011;3131;42.630;23.382;2022-07-10T05:34:42;11.13;;;7.87;;
6195;SDS011;3131;42.630;23.382;2022-07-10T05:37:09;8.90;;;6.50;;
6195;SDS011;3131;42.630;23.382;2022-07-10T05:39:37;13.40;;;6.97;;
6195;SDS011;3131;42.630;23.382;2022-07-10T05:42:05;11.77;;;7.20;;
6195;SDS011;3131;42.630;23.382;2022-07-10T05:44:33;9.37;;;6.00;;
6195;SDS011;3131;42.630;23.382;2022-07-10T05:47:00;10.07;;;7.27;;
6195;SDS011;3131;42.630;23.382;2022-07-10T05:49:28;7.00;;;6.03;;
6195;SDS011;3131;42.630;23.382;2022-07-10T05:51:55;10.70;;;6.83;;
6195;SDS011;3131;42.630;23.382;2022-07-10T05:54:23;9.87;;;7.27;;
6195;SDS011;3131;42.630;23.382;2022-07-10T05:56:51;9.13;;;6.73;;
6195;SDS011;3131;42.630;23.382;2022-07-10T05:59:19;6.90;;;6.00;;
6195;SDS011;3131;42.630;23.382;2022-07-10T06:01:47;10.40;;;7.40;;
6195;SDS011;3131;42.630;23.382;2022-07-10T06:04:14;9.07;;;7.00;;
6195;SDS011;3131;42.630;23.382;2022-07-10T06:06:42;8.17;;;4.63;;
6195;SDS011;3131;42.630;23.382;2022-07-10T06:09:09;8.03;;;5.10;;
6195;SDS011;3131;42.630;23.382;2022-07-10T06:11:37;12.27;;;6.40;;
6195;SDS011;3131;42.630;23.382;2022-07-10T06:14:06;10.00;;;6.40;;
6195;SDS011;3131;42.630;23.382;2022-07-10T06:16:33;7.00;;;5.37;;
6195;SDS011;3131;42.630;23.382;2022-07-10T06:19:01;8.67;;;5.27;;
6195;SDS011;3131;42.630;23.382;2022-07-10T06:21:28;9.03;;;5.60;;
6195;SDS011;3131;42.630;23.382;2022-07-10T06:23:56;6.63;;;5.43;;
6195;SDS011;3131;42.630;23.382;2022-07-10T06:26:24;10.23;;;5.63;;
6195;SDS011;3131;42.630;23.382;2022-07-10T06:28:51;7.63;;;5.73;;
6195;SDS011;3131;42.630;23.382;2022-07-10T06:31:19;8.23;;;5.77;;
6195;SDS011;3131;42.630;23.382;2022-07-10T06:33:47;6.77;;;6.00;;
6195;SDS011;3131;42.630;23.382;2022-07-10T06:36:14;6.43;;;4.87;;
6195;SDS011;3131;42.630;23.382;2022-07-10T06:38:42;6.93;;;4.60;;
6195;SDS011;3131;42.630;23.382;2022-07-10T06:41:10;7.90;;;5.23;;
6195;SDS011;3131;42.630;23.382;2022-07-10T06:43:38;8.63;;;5.37;;
6195;SDS011;3131;42.630;23.382;2022-07-10T06:46:05;5.57;;;4.20;;
6195;SDS011;3131;42.630;23.382;2022-07-10T06:48:33;7.37;;;5.17;;
6195;SDS011;3131;42.630;23.382;2022-07-10T06:51:02;6.33;;;5.20;;
6195;SDS011;3131;42.630;23.382;2022-07-10T06:53:31;10.00;;;5.13;;
6195;SDS011;3131;42.630;23.382;2022-07-10T06:55:59;11.83;;;5.40;;
6195;SDS011;3131;42.630;23.382;2022-07-10T06:58:27;11.67;;;4.60;;
6195;SDS011;3131;42.630;23.382;2022-07-10T07:00:54;9.47;;;6.77;;
6195;SDS011;3131;42.630;23.382;2022-07-10T07:03:22;5.43;;;4.30;;
6195;SDS011;3131;42.630;23.382;2022-07-10T07:05:50;4.67;;;4.03;;
6195;SDS011;3131;42.630;23.382;2022-07-10T07:08:18;6.00;;;4.50;;
6195;SDS011;3131;42.630;23.382;2022-07-10T07:10:45;6.57;;;4.77;;
6195;SDS011;3131;42.630;23.382;2022-07-10T07:13:13;7.13;;;4.43;;
6195;SDS011;3131;42.630;23.382;2022-07-10T07:15:40;9.50;;;4.27;;
6195;SDS011;3131;42.630;23.382;2022-07-10T07:18:10;5.10;;;4.50;;
6195;SDS011;3131;42.630;23.382;2022-07-10T07:20:39;4.23;;;3.73;;
6195;SDS011;3131;42.630;23.382;2022-07-10T07:23:24;6.57;;;4.17;;
6195;SDS011;3131;42.630;23.382;2022-07-10T07:25:51;6.53;;;5.10;;
6195;SDS011;3131;42.630;23.382;2022-07-10T07:28:19;5.47;;;3.77;;
6195;SDS011;3131;42.630;23.382;2022-07-10T07:30:47;11.50;;;4.57;;
6195;SDS011;3131;42.630;23.382;2022-07-10T07:33:15;7.77;;;4.40;;
6195;SDS011;3131;42.630;23.382;2022-07-10T07:35:42;5.50;;;4.13;;
6195;SDS011;3131;42.630;23.382;2022-07-10T07:38:10;8.27;;;5.40;;
6195;SDS011;3131;42.630;23.382;2022-07-10T07:40:38;6.47;;;4.60;;
6195;SDS011;3131;42.630;23.382;2022-07-10T07:43:05;5.63;;;4.33;;
6195;SDS011;3131;42.630;23.382;2022-07-10T07:45:33;6.57;;;4.60;;
6195;SDS011;3131;42.630;23.382;2022-07-10T07:48:01;7.97;;;4.90;;
6195;SDS011;3131;42.630;23.382;2022-07-10T07:50:29;6.83;;;4.80;;
6195;SDS011;3131;42.630;23.382;2022-07-10T07:52:58;7.20;;;4.77;;
6195;SDS011;3131;42.630;23.382;2022-07-10T07:55:25;16.00;;;5.40;;
6195;SDS011;3131;42.630;23.382;2022-07-10T07:57:53;11.70;;;5.30;;
6195;SDS011;3131;42.630;23.382;2022-07-10T08:00:21;6.77;;;4.37;;
6195;SDS011;3131;42.630;23.382;2022-07-10T08:02:49;9.20;;;4.60;;
6195;SDS011;3131;42.630;23.382;2022-07-10T08:05:17;7.40;;;4.30;;
6195;SDS011;3131;42.630;23.382;2022-07-10T08:07:45;4.97;;;4.07;;
6195;SDS011;3131;42.630;23.382;2022-07-10T08:10:14;7.43;;;4.03;;
6195;SDS011;3131;42.630;23.382;2022-07-10T08:12:42;11.83;;;4.53;;
6195;SDS011;3131;42.630;23.382;2022-07-10T08:15:12;6.27;;;4.07;;
6195;SDS011;3131;42.630;23.382;2022-07-10T08:17:40;5.37;;;3.67;;
6195;SDS011;3131;42.630;23.382;2022-07-10T08:20:10;5.53;;;4.20;;
6195;SDS011;3131;42.630;23.382;2022-07-10T08:22:37;4.57;;;3.80;;
6195;SDS011;3131;42.630;23.382;2022-07-10T08:25:06;5.20;;;3.90;;
6195;SDS011;3131;42.630;23.382;2022-07-10T08:27:33;7.00;;;4.00;;
6195;SDS011;3131;42.630;23.382;2022-07-10T08:30:01;6.73;;;3.87;;
6195;SDS011;3131;42.630;23.382;2022-07-10T08:32:28;7.13;;;3.80;;
6195;SDS011;3131;42.630;23.382;2022-07-10T08:34:56;6.97;;;3.80;;
6195;SDS011;3131;42.630;23.382;2022-07-10T08:37:25;5.50;;;3.80;;
6195;SDS011;3131;42.630;23.382;2022-07-10T08:39:52;7.40;;;4.00;;
6195;SDS011;3131;42.630;23.382;2022-07-10T08:42:20;5.20;;;3.63;;
6195;SDS011;3131;42.630;23.382;2022-07-10T08:44:47;4.97;;;3.93;;
6195;SDS011;3131;42.630;23.382;2022-07-10T08:47:15;4.10;;;3.70;;
6195;SDS011;3131;42.630;23.382;2022-07-10T08:49:45;6.17;;;3.63;;
6195;SDS011;3131;42.630;23.382;2022-07-10T08:52:16;7.13;;;4.10;;
6195;SDS011;3131;42.630;23.382;2022-07-10T08:54:42;5.77;;;3.63;;
6195;SDS011;3131;42.630;23.382;2022-07-10T08:57:11;3.77;;;3.43;;
6195;SDS011;3131;42.630;23.382;2022-07-10T08:59:38;4.00;;;3.60;;
6195;SDS011;3131;42.630;23.382;2022-07-10T09:02:06;8.77;;;3.80;;
6195;SDS011;3131;42.630;23.382;2022-07-10T09:04:34;5.23;;;3.57;;
6195;SDS011;3131;42.630;23.382;2022-07-10T09:07:01;5.70;;;3.40;;
6195;SDS011;3131;42.630;23.382;2022-07-10T09:09:30;5.93;;;3.77;;
6195;SDS011;3131;42.630;23.382;2022-07-10T09:11:58;7.83;;;3.40;;
6195;SDS011;3131;42.630;23.382;2022-07-10T09:14:26;9.20;;;3.70;;
6195;SDS011;3131;42.630;23.382;2022-07-10T09:16:54;10.00;;;4.43;;
6195;SDS011;3131;42.630;23.382;2022-07-10T09:19:22;7.87;;;4.83;;
6195;SDS011;3131;42.630;23.382;2022-07-10T09:21:50;3.67;;;3.20;;
6195;SDS011;3131;42.630;23.382;2022-07-10T09:24:19;7.63;;;3.37;;
6195;SDS011;3131;42.630;23.382;2022-07-10T09:26:57;5.43;;;3.70;;
6195;SDS011;3131;42.630;23.382;2022-07-10T09:29:17;4.73;;;3.33;;
6195;SDS011;3131;42.630;23.382;2022-07-10T09:31:51;3.67;;;3.37;;
6195;SDS011;3131;42.630;23.382;2022-07-10T09:34:19;5.83;;;3.73;;
6195;SDS011;3131;42.630;23.382;2022-07-10T09:36:48;11.00;;;3.83;;
6195;SDS011;3131;42.630;23.382;2022-07-10T09:39:16;3.40;;;2.97;;
6195;SDS011;3131;42.630;23.382;2022-07-10T09:41:44;8.27;;;4.20;;
6195;SDS011;3131;42.630;23.382;2022-07-10T09:44:12;6.30;;;3.37;;
6195;SDS011;3131;42.630;23.382;2022-07-10T09:46:41;3.27;;;2.97;;
6195;SDS011;3131;42.630;23.382;2022-07-10T09:49:09;8.30;;;3.43;;
6195;SDS011;3131;42.630;23.382;2022-07-10T09:51:38;4.80;;;3.47;;
6195;SDS011;3131;42.630;23.382;2022-07-10T09:54:06;5.97;;;3.70;;
6195;SDS011;3131;42.630;23.382;2022-07-10T09:56:38;3.70;;;3.40;;
6195;SDS011;3131;42.630;23.382;2022-07-10T09:59:08;11.00;;;3.97;;
6195;SDS011;3131;42.630;23.382;2022-07-10T10:01:36;8.40;;;3.43;;
6195;SDS011;3131;42.630;23.382;2022-07-10T10:04:04;11.20;;;3.27;;
6195;SDS011;3131;42.630;23.382;2022-07-10T10:06:33;4.20;;;2.77;;
6195;SDS011;3131;42.630;23.382;2022-07-10T10:09:04;5.90;;;2.90;;
6195;SDS011;3131;42.630;23.382;2022-07-10T10:11:32;6.57;;;3.10;;
6195;SDS011;3131;42.630;23.382;2022-07-10T10:14:01;8.73;;;3.40;;
6195;SDS011;3131;42.630;23.382;2022-07-10T10:16:29;4.37;;;3.17;;
6195;SDS011;3131;42.630;23.382;2022-07-10T10:18:57;3.80;;;2.80;;
6195;SDS011;3131;42.630;23.382;2022-07-10T10:21:43;5.03;;;3.13;;
6195;SDS011;3131;42.630;23.382;2022-07-10T10:24:12;5.63;;;3.40;;
6195;SDS011;3131;42.630;23.382;2022-07-10T10:26:41;5.90;;;3.40;;
6195;SDS011;3131;42.630;23.382;2022-07-10T10:29:09;4.87;;;2.70;;
6195;SDS011;3131;42.630;23.382;2022-07-10T10:31:37;5.50;;;2.97;;
6195;SDS011;3131;42.630;23.382;2022-07-10T10:34:06;4.97;;;2.57;;
6195;SDS011;3131;42.630;23.382;2022-07-10T10:36:43;6.33;;;3.13;;
6195;SDS011;3131;42.630;23.382;2022-07-10T10:39:12;3.17;;;2.80;;
6195;SDS011;3131;42.630;23.382;2022-07-10T10:41:40;3.47;;;2.60;;
6195;SDS011;3131;42.630;23.382;2022-07-10T10:44:27;3.37;;;2.77;;
6195;SDS011;3131;42.630;23.382;2022-07-10T10:47:02;7.07;;;2.77;;
6195;SDS011;3131;42.630;23.382;2022-07-10T10:49:48;6.80;;;3.10;;
6195;SDS011;3131;42.630;23.382;2022-07-10T10:52:16;11.80;;;2.77;;
6195;SDS011;3131;42.630;23.382;2022-07-10T10:55:00;3.03;;;2.20;;
6195;SDS011;3131;42.630;23.382;2022-07-10T10:57:35;3.63;;;2.83;;
6195;SDS011;3131;42.630;23.382;2022-07-10T11:00:05;6.93;;;2.60;;
6195;SDS011;3131;42.630;23.382;2022-07-10T11:02:34;6.90;;;2.70;;
6195;SDS011;3131;42.630;23.382;2022-07-10T11:07:53;4.53;;;2.73;;
6195;SDS011;3131;42.630;23.382;2022-07-10T11:10:27;3.00;;;2.20;;
6195;SDS011;3131;42.630;23.382;2022-07-10T11:12:58;3.70;;;2.43;;
6195;SDS011;3131;42.630;23.382;2022-07-10T11:15:26;2.80;;;2.50;;
6195;SDS011;3131;42.630;23.382;2022-07-10T11:17:56;4.40;;;2.90;;
6195;SDS011;3131;42.630;23.382;2022-07-10T11:20:24;2.60;;;2.40;;
6195;SDS011;3131;42.630;23.382;2022-07-10T11:22:55;6.50;;;2.63;;
6195;SDS011;3131;42.630;23.382;2022-07-10T11:28:17;4.53;;;2.37;;
6195;SDS011;3131;42.630;23.382;2022-07-10T11:30:46;4.57;;;2.50;;
6195;SDS011;3131;42.630;23.382;2022-07-10T11:33:14;6.37;;;2.80;;
6195;SDS011;3131;42.630;23.382;2022-07-10T11:35:44;4.87;;;2.37;;
6195;SDS011;3131;42.630;23.382;2022-07-10T11:38:13;5.50;;;2.73;;
6195;SDS011;3131;42.630;23.382;2022-07-10T11:40:43;4.00;;;2.57;;
6195;SDS011;3131;42.630;23.382;2022-07-10T11:43:11;3.57;;;2.53;;
6195;SDS011;3131;42.630;23.382;2022-07-10T11:45:41;3.00;;;2.53;;
6195;SDS011;3131;42.630;23.382;2022-07-10T11:48:09;4.80;;;3.00;;
6195;SDS011;3131;42.630;23.382;2022-07-10T11:50:38;4.30;;;2.70;;
6195;SDS011;3131;42.630;23.382;2022-07-10T11:53:05;5.23;;;3.13;;
6195;SDS011;3131;42.630;23.382;2022-07-10T11:55:33;6.27;;;2.67;;
6195;SDS011;3131;42.630;23.382;2022-07-10T11:58:12;2.47;;;2.27;;
6195;SDS011;3131;42.630;23.382;2022-07-10T12:00:40;3.77;;;2.50;;
6195;SDS011;3131;42.630;23.382;2022-07-10T12:03:19;6.67;;;3.90;;
6195;SDS011;3131;42.630;23.382;2022-07-10T12:05:48;8.03;;;2.90;;
6195;SDS011;3131;42.630;23.382;2022-07-10T12:08:16;4.53;;;2.93;;
6195;SDS011;3131;42.630;23.382;2022-07-10T12:10:44;4.47;;;2.67;;
6195;SDS011;3131;42.630;23.382;2022-07-10T12:13:12;7.87;;;3.00;;
6195;SDS011;3131;42.630;23.382;2022-07-10T12:15:41;4.73;;;2.90;;
6195;SDS011;3131;42.630;23.382;2022-07-10T12:18:09;3.07;;;2.30;;
6195;SDS011;3131;42.630;23.382;2022-07-10T12:20:38;3.87;;;1.97;;
6195;SDS011;3131;42.630;23.382;2022-07-10T12:23:07;3.20;;;2.43;;
6195;SDS011;3131;42.630;23.382;2022-07-10T12:25:36;4.93;;;2.30;;
6195;SDS011;3131;42.630;23.382;2022-07-10T12:28:04;5.27;;;2.03;;
6195;SDS011;3131;42.630;23.382;2022-07-10T12:30:38;3.13;;;2.40;;
6195;SDS011;3131;42.630;23.382;2022-07-10T12:33:07;3.90;;;2.57;;
6195;SDS011;3131;42.630;23.382;2022-07-10T12:35:46;4.77;;;2.50;;
6195;SDS011;3131;42.630;23.382;2022-07-10T12:38:15;2.77;;;2.07;;
6195;SDS011;3131;42.630;23.382;2022-07-10T12:40:43;3.57;;;2.00;;
6195;SDS011;3131;42.630;23.382;2022-07-10T12:43:11;7.53;;;2.43;;
6195;SDS011;3131;42.630;23.382;2022-07-10T12:45:38;5.07;;;2.00;;
6195;SDS011;3131;42.630;23.382;2022-07-10T12:48:06;2.03;;;1.93;;
6195;SDS011;3131;42.630;23.382;2022-07-10T12:50:33;5.10;;;2.10;;
6195;SDS011;3131;42.630;23.382;2022-07-10T12:53:08;2.13;;;1.90;;
6195;SDS011;3131;42.630;23.382;2022-07-10T12:55:36;2.50;;;2.30;;
6195;SDS011;3131;42.630;23.382;2022-07-10T12:58:07;4.27;;;2.50;;
6195;SDS011;3131;42.630;23.382;2022-07-10T13:00:43;2.87;;;1.90;;
6195;SDS011;3131;42.630;23.382;2022-07-10T13:03:07;2.63;;;1.80;;
6195;SDS011;3131;42.630;23.382;2022-07-10T13:05:36;3.20;;;2.03;;
6195;SDS011;3131;42.630;23.382;2022-07-10T13:08:05;2.00;;;1.80;;
6195;SDS011;3131;42.630;23.382;2022-07-10T13:10:33;4.33;;;1.77;;
6195;SDS011;3131;42.630;23.382;2022-07-10T13:13:02;4.70;;;2.10;;
6195;SDS011;3131;42.630;23.382;2022-07-10T13:15:30;6.93;;;2.47;;
6195;SDS011;3131;42.630;23.382;2022-07-10T13:17:58;3.13;;;1.83;;
6195;SDS011;3131;42.630;23.382;2022-07-10T13:20:26;1.90;;;1.60;;
6195;SDS011;3131;42.630;23.382;2022-07-10T13:22:54;1.53;;;1.43;;
6195;SDS011;3131;42.630;23.382;2022-07-10T13:25:21;3.83;;;1.90;;
6195;SDS011;3131;42.630;23.382;2022-07-10T13:27:49;8.03;;;2.17;;
6195;SDS011;3131;42.630;23.382;2022-07-10T13:30:17;4.80;;;2.00;;
6195;SDS011;3131;42.630;23.382;2022-07-10T13:32:45;7.03;;;1.80;;
6195;SDS011;3131;42.630;23.382;2022-07-10T13:35:13;4.87;;;1.53;;
6195;SDS011;3131;42.630;23.382;2022-07-10T13:37:40;2.20;;;1.30;;
6195;SDS011;3131;42.630;23.382;2022-07-10T13:40:09;4.83;;;1.67;;
6195;SDS011;3131;42.630;23.382;2022-07-10T13:42:37;5.17;;;1.50;;
6195;SDS011;3131;42.630;23.382;2022-07-10T13:45:05;5.03;;;1.60;;
6195;SDS011;3131;42.630;23.382;2022-07-10T13:47:34;3.23;;;1.70;;
6195;SDS011;3131;42.630;23.382;2022-07-10T13:50:02;3.67;;;1.50;;
6195;SDS011;3131;42.630;23.382;2022-07-10T13:52:29;2.43;;;1.57;;
6195;SDS011;3131;42.630;23.382;2022-07-10T13:54:57;3.97;;;1.70;;
6195;SDS011;3131;42.630;23.382;2022-07-10T13:57:25;2.30;;;1.47;;
6195;SDS011;3131;42.630;23.382;2022-07-10T13:59:53;4.53;;;1.50;;
6195;SDS011;3131;42.630;23.382;2022-07-10T14:02:21;3.83;;;1.53;;
6195;SDS011;3131;42.630;23.382;2022-07-10T14:04:48;1.87;;;1.33;;
6195;SDS011;3131;42.630;23.382;2022-07-10T14:07:16;1.53;;;1.43;;
6195;SDS011;3131;42.630;23.382;2022-07-10T14:09:43;4.57;;;1.60;;
6195;SDS011;3131;42.630;23.382;2022-07-10T14:12:11;2.30;;;1.70;;
6195;SDS011;3131;42.630;23.382;2022-07-10T14:14:39;2.47;;;1.60;;
6195;SDS011;3131;42.630;23.382;2022-07-10T14:17:06;2.07;;;1.50;;
6195;SDS011;3131;42.630;23.382;2022-07-10T14:19:34;2.43;;;1.50;;
6195;SDS011;3131;42.630;23.382;2022-07-10T14:22:02;3.47;;;1.60;;
6195;SDS011;3131;42.630;23.382;2022-07-10T14:24:30;7.67;;;1.90;;
6195;SDS011;3131;42.630;23.382;2022-07-10T14:26:57;4.67;;;1.50;;
6195;SDS011;3131;42.630;23.382;2022-07-10T14:29:25;2.87;;;1.70;;
6195;SDS011;3131;42.630;23.382;2022-07-10T14:31:53;5.63;;;1.60;;
6195;SDS011;3131;42.630;23.382;2022-07-10T14:34:20;2.73;;;1.30;;
6195;SDS011;3131;42.630;23.382;2022-07-10T14:36:50;2.43;;;1.70;;
6195;SDS011;3131;42.630;23.382;2022-07-10T14:39:18;2.03;;;1.33;;
6195;SDS011;3131;42.630;23.382;2022-07-10T14:41:45;2.93;;;1.70;;
6195;SDS011;3131;42.630;23.382;2022-07-10T14:44:13;4.13;;;1.60;;
6195;SDS011;3131;42.630;23.382;2022-07-10T14:46:41;1.43;;;1.30;;
6195;SDS011;3131;42.630;23.382;2022-07-10T14:49:08;11.17;;;2.13;;
6195;SDS011;3131;42.630;23.382;2022-07-10T14:51:36;2.17;;;1.50;;
6195;SDS011;3131;42.630;23.382;2022-07-10T14:54:05;3.93;;;1.57;;
6195;SDS011;3131;42.630;23.382;2022-07-10T14:56:32;6.53;;;1.70;;
6195;SDS011;3131;42.630;23.382;2022-07-10T14:59:00;2.67;;;1.40;;
6195;SDS011;3131;42.630;23.382;2022-07-10T15:01:27;3.57;;;1.57;;
6195;SDS011;3131;42.630;23.382;2022-07-10T15:03:57;2.40;;;1.97;;
6195;SDS011;3131;42.630;23.382;2022-07-10T15:06:24;5.40;;;1.90;;